createdAt,value
2022-10-15T00:01:39.094Z,99638.13
2022-10-15T00:04:07.219Z,99631.25
2022-10-15T00:06:35.257Z,99632.69
2022-10-15T00:09:03.434Z,99625.31
2022-10-15T00:11:33.060Z,99618.88
2022-10-15T00:14:01.687Z,99618.31
2022-10-15T00:16:30.725Z,99619.25
2022-10-15T00:19:00.432Z,99613.41
2022-10-15T00:21:28.726Z,99610.16
2022-10-15T00:23:57.332Z,99615.28
2022-10-15T00:26:27.180Z,99615.22
2022-10-15T00:28:58.759Z,99606.53
2022-10-15T00:31:28.663Z,99601.94
2022-10-15T00:33:58.560Z,99594.19
2022-10-15T00:36:28.363Z,99601.09
2022-10-15T00:38:57.254Z,99601.13
2022-10-15T00:41:29.665Z,99601.59
2022-10-15T00:44:00.985Z,99595.72
2022-10-15T00:46:33.418Z,99599.34
2022-10-15T00:49:06.912Z,99600.88
2022-10-15T00:51:41.022Z,99596.34
2022-10-15T00:54:11.102Z,99592.78
2022-10-15T00:56:41.628Z,99578.84
2022-10-15T00:59:15.398Z,99585.69
2022-10-15T01:01:46.514Z,99576.94
2022-10-15T01:04:14.489Z,99574.06
2022-10-15T01:06:42.438Z,99574.59
2022-10-15T01:09:10.553Z,99566.56
2022-10-15T01:11:43.365Z,99559.56
2022-10-15T01:14:24.467Z,99545.28
2022-10-15T01:16:58.871Z,99562.19
2022-10-15T01:19:39.077Z,99556.28
2022-10-15T01:22:10.631Z,99552.47
2022-10-15T01:24:55.998Z,99543.59
2022-10-15T01:27:33.899Z,99542.34
2022-10-15T01:30:23.461Z,99534.56
2022-10-15T01:33:17.049Z,99525.03
2022-10-15T01:35:51.668Z,99514.69
2022-10-15T01:38:34.243Z,99501.38
2022-10-15T01:41:09.980Z,99511.22
2022-10-15T01:43:44.653Z,99509.38
2022-10-15T01:46:18.128Z,99507.34
2022-10-15T01:48:48.489Z,99503.13
2022-10-15T01:51:19.009Z,99492.84
2022-10-15T01:53:47.967Z,99502.97
2022-10-15T01:56:21.931Z,99499.53
2022-10-15T01:58:52.286Z,99489.44
2022-10-15T02:01:20.487Z,99480.66
2022-10-15T02:03:51.456Z,99484.44
2022-10-15T02:06:25.008Z,99476.84
2022-10-15T02:09:08.481Z,99482.31
2022-10-15T02:11:51.790Z,99479.94
2022-10-15T02:14:29.292Z,99472.09
2022-10-15T02:17:04.380Z,99468.28
2022-10-15T02:19:40.767Z,99459.69
2022-10-15T02:22:15.044Z,99456.22
2022-10-15T02:24:53.019Z,99459.94
2022-10-15T02:27:23.952Z,99454.09
2022-10-15T02:29:53.086Z,99451.69
2022-10-15T02:32:23.129Z,99447.28
2022-10-15T02:34:54.721Z,99442.63
2022-10-15T02:37:25.575Z,99442.72
2022-10-15T02:39:53.620Z,99445.34
2022-10-15T02:42:25.173Z,99446.09
2022-10-15T02:44:56.184Z,99440.03
2022-10-15T02:49:54.407Z,99440.22
2022-10-15T02:52:22.616Z,99437.50
2022-10-15T02:54:50.797Z,99440.84
2022-10-15T02:57:18.707Z,99436.25
2022-10-15T02:59:49.174Z,99434.31
2022-10-15T03:02:19.262Z,99425.72
2022-10-15T03:04:47.414Z,99419.09
2022-10-15T03:07:16.711Z,99410.31
2022-10-15T03:09:44.613Z,99405.66
2022-10-15T03:12:12.562Z,99407.56
2022-10-15T03:14:40.487Z,99408.63
2022-10-15T03:17:08.422Z,99397.19
2022-10-15T03:19:36.325Z,99392.31
2022-10-15T03:22:04.275Z,99391.31
2022-10-15T03:24:34.573Z,99392.25
2022-10-15T03:27:02.545Z,99379.03
2022-10-15T03:29:30.598Z,99371.41
2022-10-15T03:31:58.515Z,99376.00
2022-10-15T03:34:26.575Z,99389.22
2022-10-15T03:36:54.541Z,99381.81
2022-10-15T03:39:22.466Z,99375.94
2022-10-15T03:41:53.769Z,99374.75
2022-10-15T03:44:21.748Z,99361.97
2022-10-15T03:46:49.766Z,99361.31
2022-10-15T03:49:17.680Z,99358.81
2022-10-15T03:51:45.584Z,99352.72
2022-10-15T03:54:13.665Z,99362.53
2022-10-15T03:56:41.568Z,99358.44
2022-10-15T03:59:10.961Z,99357.31
2022-10-15T04:01:38.915Z,99351.72
2022-10-15T04:04:06.884Z,99358.34
2022-10-15T04:06:35.196Z,99351.44
2022-10-15T04:09:03.200Z,99358.22
2022-10-15T04:11:31.139Z,99345.19
2022-10-15T04:13:59.066Z,99345.50
2022-10-15T04:16:28.496Z,99340.00
2022-10-15T04:18:57.775Z,99333.84
2022-10-15T04:21:25.917Z,99333.19
2022-10-15T04:23:53.841Z,99335.97
2022-10-15T04:26:21.860Z,99336.84
2022-10-15T04:28:50.224Z,99333.78
2022-10-15T04:31:18.165Z,99337.84
2022-10-15T04:33:49.630Z,99330.94
2022-10-15T04:38:45.406Z,99325.06
2022-10-15T04:41:13.992Z,99334.91
2022-10-15T04:43:41.929Z,99333.22
2022-10-15T04:46:10.549Z,99332.06
2022-10-15T04:48:42.909Z,99333.72
2022-10-15T04:51:14.806Z,99337.66
2022-10-15T04:53:45.746Z,99339.84
2022-10-15T04:56:17.874Z,99337.69
2022-10-15T04:58:47.605Z,99340.72
2022-10-15T05:01:18.011Z,99340.19
2022-10-15T05:03:47.615Z,99337.44
2022-10-15T05:06:18.653Z,99339.69
2022-10-15T05:08:47.672Z,99332.56
2022-10-15T05:11:17.524Z,99338.31
2022-10-15T05:13:45.506Z,99335.41
2022-10-15T05:16:16.111Z,99332.59
2022-10-15T05:18:46.091Z,99340.44
2022-10-15T05:21:14.737Z,99330.00
2022-10-15T05:23:44.572Z,99327.03
2022-10-15T05:26:15.550Z,99334.34
2022-10-15T05:28:43.858Z,99326.09
2022-10-15T05:31:18.567Z,99331.31
2022-10-15T05:33:47.304Z,99337.06
2022-10-15T05:36:17.628Z,99326.22
2022-10-15T05:38:47.845Z,99332.97
2022-10-15T05:41:15.883Z,99337.19
2022-10-15T05:43:44.182Z,99326.63
2022-10-15T05:46:12.094Z,99336.63
2022-10-15T05:48:40.120Z,99334.75
2022-10-15T05:51:09.828Z,99330.81
2022-10-15T05:53:38.145Z,99319.47
2022-10-15T05:56:09.064Z,99323.59
2022-10-15T05:58:37.946Z,99317.94
2022-10-15T06:01:08.301Z,99310.28
2022-10-15T06:03:37.194Z,99308.81
2022-10-15T06:06:05.619Z,99307.94
2022-10-15T06:08:33.582Z,99300.09
2022-10-15T06:11:06.903Z,99297.69
2022-10-15T06:13:40.753Z,99311.72
2022-10-15T06:16:09.439Z,99312.19
2022-10-15T06:18:38.626Z,99313.31
2022-10-15T06:21:07.723Z,99310.63
2022-10-15T06:23:36.500Z,99300.34
2022-10-15T06:26:05.276Z,99303.56
2022-10-15T06:28:33.839Z,99303.25
2022-10-15T06:31:03.606Z,99308.28
2022-10-15T06:33:32.237Z,99304.47
2022-10-15T06:36:03.243Z,99303.75
2022-10-15T06:38:31.693Z,99322.59
2022-10-15T06:40:59.769Z,99321.00
2022-10-15T06:43:29.841Z,99323.00
2022-10-15T06:46:01.073Z,99331.38
2022-10-15T06:48:30.392Z,99327.88
2022-10-15T06:51:00.952Z,99322.06
2022-10-15T06:53:29.253Z,99318.97
2022-10-15T06:56:01.147Z,99333.59
2022-10-15T06:58:29.708Z,99326.00
2022-10-15T07:01:01.602Z,99333.19
2022-10-15T07:03:31.218Z,99327.22
2022-10-15T07:06:03.564Z,99324.72
2022-10-15T07:08:31.603Z,99326.91
2022-10-15T07:10:59.810Z,99337.97
2022-10-15T07:13:28.134Z,99339.50
2022-10-15T07:16:06.380Z,99350.56
2022-10-15T07:18:36.498Z,99351.06
2022-10-15T07:21:06.119Z,99357.84
2022-10-15T07:23:34.261Z,99359.75
2022-10-15T07:26:02.687Z,99367.09
2022-10-15T07:28:30.726Z,99362.28
2022-10-15T07:31:03.437Z,99360.00
2022-10-15T07:33:31.481Z,99367.84
2022-10-15T07:36:03.076Z,99376.53
2022-10-15T07:38:30.984Z,99371.56
2022-10-15T07:40:59.852Z,99376.00
2022-10-15T07:43:28.104Z,99372.19
2022-10-15T07:45:56.317Z,99370.53
2022-10-15T07:48:25.103Z,99359.69
2022-10-15T07:50:56.622Z,99365.81
2022-10-15T07:53:26.309Z,99368.78
2022-10-15T07:55:54.592Z,99376.25
2022-10-15T07:58:22.552Z,99376.31
2022-10-15T08:00:50.576Z,99369.94
2022-10-15T08:03:18.514Z,99381.09
2022-10-15T08:05:46.427Z,99379.00
2022-10-15T08:08:14.368Z,99371.44
2022-10-15T08:10:43.708Z,99374.31
2022-10-15T08:13:11.611Z,99379.81
2022-10-15T08:15:40.330Z,99385.28
2022-10-15T08:18:11.115Z,99384.72
2022-10-15T08:20:39.256Z,99381.44
2022-10-15T08:23:14.835Z,99390.38
2022-10-15T08:25:44.256Z,99391.13
2022-10-15T08:28:12.178Z,99392.16
2022-10-15T08:30:40.415Z,99392.41
2022-10-15T08:33:08.367Z,99395.84
2022-10-15T08:35:39.117Z,99403.03
2022-10-15T08:38:07.043Z,99405.50
2022-10-15T08:40:34.994Z,99402.19
2022-10-15T08:43:06.447Z,99396.19
2022-10-15T08:45:42.240Z,99390.88
2022-10-15T08:48:14.305Z,99385.53
2022-10-15T08:50:49.239Z,99392.00
2022-10-15T08:53:23.401Z,99394.69
2022-10-15T08:55:54.503Z,99391.38
2022-10-15T08:58:27.422Z,99398.66
2022-10-15T09:01:00.874Z,99391.53
2022-10-15T09:03:39.995Z,99395.34
2022-10-15T09:06:14.892Z,99388.63
2022-10-15T09:08:53.062Z,99385.31
2022-10-15T09:11:31.487Z,99388.91
2022-10-15T09:14:00.988Z,99392.16
2022-10-15T09:16:33.882Z,99384.59
2022-10-15T09:19:05.827Z,99387.53
2022-10-15T09:21:36.828Z,99383.31
2022-10-15T09:24:05.713Z,99394.03
2022-10-15T09:26:47.208Z,99388.72
2022-10-15T09:29:22.558Z,99384.38
2022-10-15T09:32:04.534Z,99386.25
2022-10-15T09:34:36.713Z,99380.72
2022-10-15T09:37:10.580Z,99373.81
2022-10-15T09:39:56.646Z,99380.16
2022-10-15T09:42:31.540Z,99389.09
2022-10-15T09:45:03.544Z,99367.09
2022-10-15T09:47:33.549Z,99384.81
2022-10-15T09:50:02.612Z,99382.28
2022-10-15T09:52:46.535Z,99371.69
2022-10-15T09:55:30.776Z,99373.50
2022-10-15T09:58:06.406Z,99386.56
2022-10-15T10:00:56.351Z,99378.78
2022-10-15T10:03:26.424Z,99381.41
2022-10-15T10:06:02.632Z,99376.97
2022-10-15T10:08:35.184Z,99375.28
2022-10-15T10:11:05.649Z,99370.72
2022-10-15T10:13:38.069Z,99378.81
2022-10-15T10:16:10.639Z,99370.91
2022-10-15T10:18:39.457Z,99373.66
2022-10-15T10:21:26.533Z,99371.00
2022-10-15T10:23:54.489Z,99367.50
2022-10-15T10:26:22.987Z,99368.38
2022-10-15T10:28:56.754Z,99366.59
2022-10-15T10:31:32.592Z,99367.44
2022-10-15T10:34:03.255Z,99364.78
2022-10-15T10:36:34.728Z,99359.44
2022-10-15T10:39:04.797Z,99367.25
2022-10-15T10:41:53.401Z,99366.34
2022-10-15T10:44:23.968Z,99361.88
2022-10-15T10:47:15.406Z,99357.44
2022-10-15T10:49:45.793Z,99352.13
2022-10-15T10:52:24.742Z,99348.53
2022-10-15T10:54:59.387Z,99342.25
2022-10-15T10:57:42.416Z,99345.63
2022-10-15T11:00:17.483Z,99347.34
2022-10-15T11:02:47.524Z,99341.94
2022-10-15T11:05:18.247Z,99343.59
2022-10-15T11:07:54.979Z,99336.53
2022-10-15T11:10:28.494Z,99337.53
2022-10-15T11:15:49.446Z,99337.34
2022-10-15T11:18:47.223Z,99331.91
2022-10-15T11:21:23.647Z,99322.16
2022-10-15T11:24:09.780Z,99326.53
2022-10-15T11:27:09.817Z,99322.78
2022-10-15T11:29:47.225Z,99314.84
2022-10-15T11:32:26.069Z,99308.56
2022-10-15T11:35:34.512Z,99303.44
2022-10-15T11:38:19.784Z,99294.53
2022-10-15T11:41:03.027Z,99285.50
2022-10-15T11:43:47.644Z,99282.56
2022-10-15T11:46:28.126Z,99274.38
2022-10-15T11:49:11.584Z,99275.06
2022-10-15T11:51:54.424Z,99276.97
2022-10-15T11:54:29.353Z,99278.81
2022-10-15T11:56:59.855Z,99275.84
2022-10-15T11:59:39.055Z,99274.94
2022-10-15T12:02:14.018Z,99274.25
2022-10-15T12:04:46.747Z,99261.13
2022-10-15T12:07:19.677Z,99253.72
2022-10-15T12:09:52.416Z,99251.81
2022-10-15T12:12:37.496Z,99255.53
2022-10-15T12:15:25.837Z,99247.44
2022-10-15T12:18:00.250Z,99236.69
2022-10-15T12:20:28.881Z,99229.25
2022-10-15T12:23:00.368Z,99225.88
2022-10-15T12:25:50.130Z,99216.88
2022-10-15T12:28:21.564Z,99207.91
2022-10-15T12:30:58.405Z,99203.41
2022-10-15T12:33:32.676Z,99198.34
2022-10-15T12:36:02.929Z,99189.88
2022-10-15T12:38:34.683Z,99188.94
2022-10-15T12:41:09.636Z,99180.66
2022-10-15T12:43:41.580Z,99178.63
2022-10-15T12:46:11.992Z,99171.09
2022-10-15T12:48:42.977Z,99165.41
2022-10-15T12:51:41.690Z,99159.16
2022-10-15T12:54:37.461Z,99159.66
2022-10-15T12:57:44.519Z,99150.84
2022-10-15T13:00:52.014Z,99152.63
2022-10-15T13:03:28.883Z,99147.34
2022-10-15T13:05:57.087Z,99146.41
2022-10-15T13:08:27.305Z,99142.63
2022-10-15T13:10:59.417Z,99143.31
2022-10-15T13:13:30.703Z,99136.78
2022-10-15T13:16:01.218Z,99130.88
2022-10-15T13:18:31.414Z,99130.88
2022-10-15T13:23:31.176Z,99108.06
2022-10-15T13:26:20.555Z,99106.34
2022-10-15T13:28:50.279Z,99103.41
2022-10-15T13:31:27.427Z,99107.75
2022-10-15T13:34:01.594Z,99094.47
2022-10-15T13:36:34.252Z,99089.38
2022-10-15T13:39:06.573Z,99092.72
2022-10-15T13:41:40.293Z,99094.03
2022-10-15T13:44:08.254Z,99095.31
2022-10-15T13:46:38.945Z,99089.91
2022-10-15T13:49:13.055Z,99088.38
2022-10-15T13:51:44.178Z,99095.63
2022-10-15T13:54:16.426Z,99081.88
2022-10-15T13:56:50.379Z,99081.84
2022-10-15T13:59:20.267Z,99080.47
2022-10-15T14:01:50.910Z,99083.34
2022-10-15T14:04:21.007Z,99081.75
2022-10-15T14:09:36.346Z,99078.50
2022-10-15T14:12:09.541Z,99074.59
2022-10-15T14:14:39.840Z,99073.78
2022-10-15T14:17:10.447Z,99071.59
2022-10-15T14:19:40.156Z,99068.72
2022-10-15T14:22:08.360Z,99066.47
2022-10-15T14:24:38.595Z,99062.03
2022-10-15T14:27:18.810Z,99057.78
2022-10-15T14:29:49.352Z,99058.38
2022-10-15T14:32:28.357Z,99057.28
2022-10-15T14:34:57.555Z,99062.09
2022-10-15T14:37:43.490Z,99056.06
2022-10-15T14:40:21.673Z,99055.94
2022-10-15T14:43:04.822Z,99056.75
2022-10-15T14:45:40.786Z,99051.56
2022-10-15T14:48:12.290Z,99056.94
2022-10-15T14:50:44.712Z,99054.06
2022-10-15T14:53:18.966Z,99051.00
2022-10-15T14:55:52.453Z,99054.66
2022-10-15T14:58:24.707Z,99050.22
2022-10-15T15:00:58.354Z,99046.53
2022-10-15T15:03:30.009Z,99048.59
2022-10-15T15:06:00.191Z,99046.75
2022-10-15T15:08:28.176Z,99039.66
2022-10-15T15:10:57.836Z,99048.69
2022-10-15T15:13:29.147Z,99054.72
2022-10-15T15:15:57.071Z,99050.78
2022-10-15T15:18:25.074Z,99048.16
2022-10-15T15:20:53.092Z,99048.63
2022-10-15T15:23:23.003Z,99052.47
2022-10-15T15:25:52.496Z,99042.59
2022-10-15T15:28:25.440Z,99047.78
2022-10-15T15:30:59.849Z,99046.53
2022-10-15T15:33:29.323Z,99039.91
2022-10-15T15:36:02.468Z,99050.16
2022-10-15T15:38:33.244Z,99046.31
2022-10-15T15:41:04.620Z,99040.97
2022-10-15T15:43:32.766Z,99040.66
2022-10-15T15:46:02.192Z,99035.31
2022-10-15T15:48:30.185Z,99037.19
2022-10-15T15:51:07.368Z,99035.78
2022-10-15T15:53:35.893Z,99029.09
2022-10-15T15:56:04.107Z,99038.09
2022-10-15T15:58:32.145Z,99029.50
2022-10-15T16:01:04.393Z,99029.28
2022-10-15T16:03:32.380Z,99033.69
2022-10-15T16:06:00.306Z,99031.13
2022-10-15T16:08:28.321Z,99034.94
2022-10-15T16:10:56.260Z,99031.78
2022-10-15T16:13:24.218Z,99023.78
2022-10-15T16:15:52.113Z,99028.31
2022-10-15T16:18:21.454Z,99039.22
2022-10-15T16:20:52.075Z,99030.59
2022-10-15T16:23:20.018Z,99035.41
2022-10-15T16:25:48.076Z,99032.91
2022-10-15T16:28:16.103Z,99030.38
2022-10-15T16:30:44.364Z,99033.22
2022-10-15T16:33:13.409Z,99027.31
2022-10-15T16:35:42.836Z,99021.34
2022-10-15T16:38:10.864Z,99031.31
2022-10-15T16:40:39.806Z,99035.88
2022-10-15T16:43:07.701Z,99026.31
2022-10-15T16:45:35.663Z,99032.81
2022-10-15T16:48:03.592Z,99026.84
2022-10-15T16:50:31.983Z,99030.53
2022-10-15T16:53:01.314Z,99033.59
2022-10-15T16:55:29.962Z,99035.38
2022-10-15T16:57:57.976Z,99039.13
2022-10-15T17:00:25.999Z,99038.41
2022-10-15T17:02:55.040Z,99036.84
2022-10-15T17:05:23.006Z,99044.16
2022-10-15T17:07:51.104Z,99037.25
2022-10-15T17:10:25.617Z,99046.34
2022-10-15T17:12:53.974Z,99039.56
2022-10-15T17:15:22.035Z,99039.63
2022-10-15T17:17:50.083Z,99046.00
2022-10-15T17:20:18.211Z,99042.59
2022-10-15T17:22:46.110Z,99055.06
2022-10-15T17:25:14.118Z,99050.78
2022-10-15T17:27:43.394Z,99051.00
2022-10-15T17:30:12.134Z,99052.94
2022-10-15T17:32:40.057Z,99056.59
2022-10-15T17:35:08.410Z,99054.91
2022-10-15T17:37:36.311Z,99061.28
2022-10-15T17:40:04.656Z,99060.50
2022-10-15T17:42:32.661Z,99067.66
2022-10-15T17:45:01.953Z,99067.78
2022-10-15T17:47:32.788Z,99068.72
2022-10-15T17:50:00.755Z,99076.75
2022-10-15T17:52:28.676Z,99069.78
2022-10-15T17:54:56.569Z,99078.66
2022-10-15T17:57:28.597Z,99078.84
2022-10-15T17:59:56.765Z,99074.53
2022-10-15T18:02:29.227Z,99077.22
2022-10-15T18:04:57.147Z,99076.28
2022-10-15T18:07:25.404Z,99075.47
2022-10-15T18:09:53.715Z,99071.06
2022-10-15T18:12:21.649Z,99073.72
2022-10-15T18:14:49.743Z,99075.47
2022-10-15T18:17:18.991Z,99070.25
2022-10-15T18:19:48.275Z,99074.72
2022-10-15T18:22:16.283Z,99073.06
2022-10-15T18:24:44.292Z,99072.16
2022-10-15T18:27:12.248Z,99075.59
2022-10-15T18:29:40.866Z,99077.38
2022-10-15T18:32:08.896Z,99076.53
2022-10-15T18:34:36.912Z,99063.44
2022-10-15T18:37:06.406Z,99067.88
2022-10-15T18:39:34.664Z,99065.19
2022-10-15T18:42:02.602Z,99070.47
2022-10-15T18:44:30.586Z,99065.22
2022-10-15T18:46:58.692Z,99059.94
2022-10-15T18:49:26.711Z,99065.22
2022-10-15T18:51:55.449Z,99062.63
2022-10-15T18:54:25.332Z,99051.19
2022-10-15T18:56:53.909Z,99060.09
2022-10-15T18:59:22.090Z,99055.66
2022-10-15T19:01:50.961Z,99057.47
2022-10-15T19:04:20.926Z,99057.41
2022-10-15T19:06:53.101Z,99059.19
2022-10-15T19:09:25.077Z,99052.16
2022-10-15T19:11:54.699Z,99056.59
2022-10-15T19:14:23.786Z,99052.19
2022-10-15T19:17:10.281Z,99054.03
2022-10-15T19:19:38.622Z,99052.28
2022-10-15T19:22:07.045Z,99047.00
2022-10-15T19:24:36.409Z,99049.63
2022-10-15T19:27:04.425Z,99051.41
2022-10-15T19:29:35.096Z,99052.28
2022-10-15T19:32:06.602Z,99048.75
2022-10-15T19:34:35.813Z,99053.16
2022-10-15T19:37:04.154Z,99053.16
2022-10-15T19:39:35.707Z,99059.28
2022-10-15T19:42:05.652Z,99048.72
2022-10-15T19:44:33.591Z,99044.31
2022-10-15T19:47:01.529Z,99048.72
2022-10-15T19:49:29.580Z,99045.22
2022-10-15T19:51:57.530Z,99055.75
2022-10-15T19:56:53.279Z,99054.00
2022-10-15T19:59:22.760Z,99062.81
2022-10-15T20:01:50.819Z,99060.16
2022-10-15T20:04:18.846Z,99059.28
2022-10-15T20:06:48.763Z,99065.44
2022-10-15T20:09:16.687Z,99068.09
2022-10-15T20:11:45.088Z,99068.09
2022-10-15T20:14:13.047Z,99070.75
2022-10-15T20:16:42.343Z,99068.09
2022-10-15T20:19:12.539Z,99076.06
2022-10-15T20:21:40.553Z,99071.63
2022-10-15T20:24:08.524Z,99072.53
2022-10-15T20:26:36.458Z,99065.47
2022-10-15T20:29:04.533Z,99073.38
2022-10-15T20:31:34.979Z,99076.03
2022-10-15T20:34:04.918Z,99076.03
2022-10-15T20:36:32.938Z,99077.78
2022-10-15T20:39:01.681Z,99079.50
2022-10-15T20:41:29.876Z,99088.34
2022-10-15T20:43:58.328Z,99091.00
2022-10-15T20:46:31.043Z,99088.34
2022-10-15T20:49:07.687Z,99095.38
2022-10-15T20:51:40.931Z,99083.03
2022-10-15T20:54:09.174Z,99081.25
2022-10-15T20:56:37.131Z,99081.28
2022-10-15T20:59:07.695Z,99084.84
2022-10-15T21:01:36.852Z,99098.03
2022-10-15T21:04:05.389Z,99079.53
2022-10-15T21:06:33.576Z,99085.66
2022-10-15T21:09:03.177Z,99083.88
2022-10-15T21:11:31.106Z,99086.53
2022-10-15T21:14:00.418Z,99080.34
2022-10-15T21:16:28.729Z,99082.94
2022-10-15T21:18:56.754Z,99088.22
2022-10-15T21:21:24.915Z,99096.16
2022-10-15T21:23:55.810Z,99090.84
2022-10-15T21:26:25.507Z,99090.78
2022-10-15T21:28:56.456Z,99091.66
2022-10-15T21:31:24.778Z,99093.41
2022-10-15T21:33:52.811Z,99093.44
2022-10-15T21:36:22.768Z,99102.25
2022-10-15T21:38:54.085Z,99104.91
2022-10-15T21:41:22.564Z,99103.13
2022-10-15T21:43:52.012Z,99112.81
2022-10-15T21:46:20.344Z,99105.75
2022-10-15T21:48:48.527Z,99110.06
2022-10-15T21:51:17.985Z,99110.81
2022-10-15T21:53:46.582Z,99092.28
2022-10-15T21:56:15.075Z,99098.38
2022-10-15T21:58:43.547Z,99091.41
2022-10-15T22:01:19.171Z,99091.47
2022-10-15T22:03:49.330Z,99101.16
2022-10-15T22:06:18.022Z,99107.28
2022-10-15T22:08:46.995Z,99101.91
2022-10-15T22:11:17.611Z,99094.97
2022-10-15T22:13:47.862Z,99094.13
2022-10-15T22:16:18.849Z,99095.00
2022-10-15T22:18:47.279Z,99094.09
2022-10-15T22:21:17.481Z,99096.75
2022-10-15T22:23:46.047Z,99094.03
2022-10-15T22:26:14.219Z,99106.44
2022-10-15T22:28:43.156Z,99102.94
2022-10-15T22:31:13.100Z,99103.81
2022-10-15T22:33:44.159Z,99094.16
2022-10-15T22:36:16.216Z,99095.88
2022-10-15T22:38:46.481Z,99097.66
2022-10-15T22:41:16.364Z,99086.13
2022-10-15T22:43:44.642Z,99086.19
2022-10-15T22:46:12.961Z,99088.88
2022-10-15T22:48:43.886Z,99082.63
2022-10-15T22:51:14.120Z,99100.22
2022-10-15T22:53:43.113Z,99087.00
2022-10-15T22:56:14.672Z,99094.06
2022-10-15T22:58:43.403Z,99095.63
2022-10-15T23:01:14.851Z,99092.22
2022-10-15T23:03:46.571Z,99087.75
2022-10-15T23:06:15.175Z,99086.94
2022-10-15T23:08:43.672Z,99087.03
2022-10-15T23:11:13.693Z,99083.56
2022-10-15T23:13:42.540Z,99080.97
2022-10-15T23:16:14.108Z,99084.41
2022-10-15T23:18:44.644Z,99084.25
2022-10-15T23:21:14.788Z,99083.38
2022-10-15T23:23:44.165Z,99085.13
2022-10-15T23:26:13.785Z,99090.97
2022-10-15T23:28:42.346Z,99074.91
2022-10-15T23:31:17.097Z,99075.91
2022-10-15T23:33:46.475Z,99077.78
2022-10-15T23:36:15.027Z,99084.06
2022-10-15T23:38:42.978Z,99079.53
2022-10-15T23:41:11.124Z,99081.34
2022-10-15T23:43:39.256Z,99084.88
2022-10-15T23:46:07.340Z,99082.19
2022-10-15T23:48:35.871Z,99076.00
2022-10-15T23:51:13.153Z,99094.31
2022-10-15T23:53:41.553Z,99076.59
2022-10-15T23:56:09.945Z,99081.03
2022-10-15T23:58:41.374Z,99068.00
